Weather observations for the past three days for
Randolph Air Force Base
| Date | Time (cdt) | Wind (kph) | Vis. (km) | Weather | Sky Cond. | Temperature (ºC) | Relative Humidity | Wind Chill (°C) | Heat Index (°C) | Pressure | Precipitation (cm) | ||||||
|---|---|---|---|---|---|---|---|---|---|---|---|---|---|---|---|---|---|
| Air | Dwpt | 6 hour | altimeter (cm) | sea level (mb) | 1 hr | 3 hr | 6 hr | ||||||||||
| Max. | Min. | ||||||||||||||||
| 10 | 07:55 | SW 6 | 16.09 | Overcast | OVC006 | 22.3 | 19.2 | 83% | 75.9 | 1011.0 | |||||||
| 10 | 06:55 | Calm | 16.09 | Fair | CLR | 19.7 | 17.6 | 25 | 19.4 | 88% | 75.84 | 1010.3 | |||||
| 10 | 05:55 | S 7 | 16.09 | Fair | CLR | 20 | 18.1 | 89% | 75.84 | 1010.3 | |||||||
| 10 | 04:55 | Calm | 16.09 | Fair | CLR | 20.1 | 17.1 | 83% | 75.87 | 1010.7 | |||||||
| 10 | 03:55 | S 7 | 16.09 | Fair | CLR | 21.2 | 16.2 | 73% | 75.84 | 1010.3 | |||||||
| 10 | 02:55 | Calm | 16.09 | Fair | CLR | 23.7 | 17.2 | 67% | 75.84 | 1010.2 | |||||||
| 10 | 01:55 | S 9 | 16.09 | Fair | CLR | 24.6 | 18 | 67% | 26 | 75.82 | 1009.9 | ||||||
| 10 | 00:55 | S 7 | 16.09 | Fair | CLR | 24.6 | 19.2 | 32.1 | 23.6 | 72% | 25 | 75.82 | 1009.9 | ||||
| 09 | 23:55 | S 11 | 16.09 | Fair | CLR | 25.6 | 19.5 | 69% | 27 | 75.79 | 1009.6 | ||||||
| 09 | 22:55 | SE 13 | 16.09 | Fair | CLR | 25.4 | 19.5 | 70% | 26 | 75.79 | 1009.6 | ||||||
| 09 | 21:55 | Calm | 16.09 | Fair | CLR | 26.5 | 19.6 | 66% | 28 | 75.72 | 1008.7 | ||||||
| 09 | 20:55 | SE 9 | 16.09 | Fair | CLR | 27.1 | 19.7 | 64% | 29 | 75.67 | 1008.0 | ||||||
| 09 | 19:55 | SE 15 | 16.09 | Fair | CLR | 29.1 | 18.2 | 52% | 30 | 75.64 | 1007.6 | ||||||
| 09 | 18:55 | S 15 | 16.09 | Fair | CLR | 32.2 | 16.9 | 33.3 | 29.4 | 40% | 33 | 75.57 | 1006.5 | ||||
| 09 | 17:55 | S 7 | 16.09 | Thunderstorm | CLR | 32.7 | 17.7 | 41% | 33 | 75.59 | 1006.8 | ||||||
| 09 | 16:55 | SE 9 | 16.09 | A Few Clouds | FEW060 | 32.4 | 18.5 | 44% | 34 | 75.59 | 1006.9 | ||||||
| 09 | 15:55 | SW 9 | 16.09 | Fair | CLR | 32.6 | 17.6 | 41% | 33 | 75.62 | 1007.2 | ||||||
| 09 | 14:55 | SW 13 | 16.09 | A Few Clouds | FEW048 FEW150 FEW190 | 32.1 | 19.3 | 47% | 34 | 75.69 | 1008.2 | ||||||
| 09 | 13:55 | NW 13 | 16.09 | Partly Cloudy | FEW120 FEW150 SCT180 | 31.1 | 19.4 | 50% | 33 | 75.74 | 1008.9 | ||||||
| 09 | 12:55 | SW 6 | 16.09 | Partly Cloudy | FEW034 SCT170 SCT190 | 29.6 | 19.9 | 30 | 22.4 | 56% | 31 | 75.79 | 1009.6 | 0.03 | |||
| 09 | 11:55 | W 15 | 16.09 | Fair | CLR | 28.5 | 20.7 | 63% | 31 | 75.82 | 1010.0 | ||||||
| 09 | 10:55 | W 11 | 16.09 | Fair | CLR | 26.3 | 20.4 | 70% | 28 | 75.82 | 1010.1 | ||||||
| 09 | 09:55 | SE 9 | 14.48 | Overcast | BKN004 OVC011 | 23.5 | 22.3 | 93% | 75.87 | 1010.8 | 0.03 | 0.03 | |||||
| 09 | 08:55 | Calm | 12.87 | Overcast | OVC003 | 23.1 | 22.1 | 94% | 75.87 | 1010.8 | |||||||
| 09 | 07:55 | SE 9 | 4.83 | Fog/Mist | OVC002 | 22.8 | 21.9 | 95% | 75.82 | 1010.1 | |||||||
| 09 | 06:55 | N 13 | 2.22 | Fog/Mist | OVC002 | 22.9 | 22 | 23.1 | 22.7 | 95% | 75.84 | 1010.4 | |||||
| 09 | 05:55 | NE 7 | 1.42 | Fog/Mist | VV002 | 22.9 | 21.9 | 94% | 75.77 | 1009.4 | |||||||
| 09 | 04:55 | NE 9 | 1.82 | Fog/Mist | OVC001 | 22.9 | 21.9 | 94% | 75.77 | 1009.4 | |||||||
| 09 | 03:55 | Calm | 1.82 | Fog/Mist | OVC002 | 22.8 | 21.8 | 94% | 75.72 | 1008.7 | |||||||
| 09 | 02:55 | S 9 | 8.05 | Fog/Mist | OVC003 | 22.8 | 21.6 | 93% | 75.74 | 1009.1 | |||||||
| 09 | 01:55 | S 13 | 9.66 | Fog/Mist | OVC004 | 23 | 21.6 | 92% | 75.74 | 1009.1 | |||||||
| 09 | 00:55 | SE 11 | 16.09 | Overcast | OVC007 | 22.9 | 21 | 25.2 | 22.8 | 89% | 75.77 | 1009.5 | |||||
| 08 | 23:55 | SE 7 | 16.09 | Overcast | OVC009 | 23.2 | 21.4 | 90% | 75.79 | 1009.8 | |||||||
| 08 | 22:55 | E 7 | 16.09 | A Few Clouds | FEW009 | 22.9 | 21 | 89% | 75.74 | 1009.2 | |||||||
| 08 | 21:55 | E 6 | 16.09 | Mostly Cloudy | BKN017 | 23.8 | 21.1 | 85% | 75.72 | 1008.9 | |||||||
| 08 | 20:55 | E 6 | 16.09 | Partly Cloudy | SCT016 SCT050 | 23.4 | 21.1 | 87% | 75.67 | 1008.2 | |||||||
| 08 | 19:55 | E 7 | 16.09 | Partly Cloudy | FEW017 SCT041 | 24.4 | 20.7 | 80% | 25 | 75.64 | 1007.8 | ||||||
| 08 | 18:55 | E 7 | 16.09 | Mostly Cloudy | BKN016 BKN055 | 25.3 | 20.5 | 25.6 | 21.4 | 75% | 26 | 75.64 | 1007.8 | ||||
| 08 | 17:55 | E 13 | 16.09 | Mostly Cloudy | SCT055 BKN170 | 25.4 | 20.4 | 74% | 27 | 75.62 | 1007.5 | ||||||
| 08 | 16:55 | E 7 | 16.09 | Overcast | OVC018 | 24.7 | 19.5 | 73% | 26 | 75.69 | 1008.5 | ||||||
| 08 | 15:55 | E 9 | 16.09 | Overcast | OVC018 | 24.7 | 19.3 | 72% | 26 | 75.74 | 1009.2 | ||||||
| 08 | 14:55 | NE 13 | 16.09 | Overcast | OVC015 | 23.8 | 18.2 | 71% | 75.77 | 1009.5 | |||||||
| 08 | 13:55 | E 13 | 16.09 | Overcast | OVC013 | 22.3 | 17.2 | 73% | 75.82 | 1010.3 | |||||||
| 08 | 12:55 | Calm | 16.09 | Overcast | OVC013 | 21.3 | 16.2 | 21.6 | 16.9 | 73% | 75.9 | 1011.4 | |||||
| 08 | 11:55 | NE 6 | 16.09 | Mostly Cloudy | SCT011 BKN017 | 21.3 | 15.8 | 71% | 75.92 | 1011.7 | |||||||
| 08 | 10:55 | NE 7 | 16.09 | Overcast | SCT010 OVC025 | 19.8 | 15.2 | 75% | 75.97 | 1012.4 | |||||||
| 08 | 09:55 | NE 11 | 16.09 | Overcast | OVC010 | 18.6 | 14.7 | 78% | 76.02 | 1013.1 | |||||||
| 08 | 08:55 | NE 13 | 16.09 | Overcast | OVC010 | 19.3 | 15.7 | 80% | 76 | 1012.7 | |||||||
| 08 | 07:55 | NE 7 | 16.09 | Overcast | OVC012 | 17.4 | 13.7 | 79% | 76 | 1012.8 | |||||||
| 08 | 06:55 | N 9 | 16.09 | Overcast | OVC014 | 17.1 | 13.4 | 19.4 | 16.9 | 79% | 76.02 | 1013.1 | |||||
| 08 | 05:55 | N 17 | 16.09 | Overcast | OVC013 | 18 | 13.1 | 73% | 76.07 | 1013.7 | |||||||
| 08 | 04:55 | E 9 | 16.09 | Overcast | BKN016 OVC024 | 18.4 | 12.8 | 70% | 75.95 | 1012.0 | |||||||
| 08 | 03:55 | N 7 | 16.09 | Overcast | OVC019 | 18.5 | 12.2 | 67% | 76.05 | 1013.3 | |||||||
| 08 | 02:55 | NE 11 | 16.09 | Overcast | OVC022 | 18.7 | 12.4 | 67% | 76.05 | 1013.4 | |||||||
| 08 | 01:55 | N 6 | 16.09 | Overcast | OVC020 | 18 | 11.5 | 66% | 76.1 | 1014.1 | |||||||
| 08 | 00:55 | NE 9 | 16.09 | Overcast | OVC023 | 17.6 | 11.2 | 21.2 | 16.6 | 66% | 76.12 | 1014.5 | |||||
| 07 | 23:55 | NE 7 | 16.09 | Fair | CLR | 17.6 | 11.6 | 68% | 76.05 | 1013.4 | |||||||
| 07 | 22:55 | NE 13 | 16.09 | Mostly Cloudy | BKN039 | 18.9 | 11.7 | 63% | 76.07 | 1013.8 | |||||||
| 07 | 21:55 | N 13 | 16.09 | Partly Cloudy | SCT030 | 17.1 | 10.5 | 65% | 76.12 | 1014.5 | |||||||
| 07 | 20:55 | NE 11 | 16.09 | Fair | CLR | 18.1 | 10.7 | 62% | 76.02 | 1013.2 | |||||||
| 07 | 19:55 | E 20 | 16.09 | Fair | CLR | 19.6 | 11.4 | 59% | 75.92 | 1011.7 | |||||||
| 07 | 18:55 | NE 13 | 16.09 | A Few Clouds | FEW038 | 21.2 | 11.8 | 22 | 17.7 | 55% | 76.07 | 1013.7 | 0.1 | ||||
| 07 | 17:55 | NE 13 | 16.09 | A Few Clouds | FEW028 FEW049 | 21.1 | 11.7 | 55% | 76.12 | 1014.4 | |||||||
| 07 | 16:55 | N 17 | 16.09 | Overcast | OVC029 | 20 | 11.2 | 57% | 76.15 | 1014.8 | |||||||
| 07 | 15:55 | N 28 | 16.09 | Mostly Cloudy | BKN030 | 20.3 | 12.3 | 60% | 76.15 | 1014.8 | 0.1 | ||||||
| 07 | 14:55 | NE 15 | 16.09 | Partly Cloudy | FEW100 SCT140 SCT190 | 19.3 | 14.1 | 72% | 76.17 | 1015.1 | |||||||
| 07 | 13:55 | NE 11 | 9.66 | Light Rain | FEW028 FEW040 BKN055 BKN065 | 17.8 | 14.3 | 80% | 76.2 | 1015.5 | 0.1 | ||||||
| 07 | 12:55 | NE 24 | 16.09 | Overcast | OVC055 | 18.7 | 12.9 | 18.7 | 15.7 | 69% | 76.25 | 1016.1 | |||||
| 07 | 11:55 | N 28 | 16.09 | Mostly Cloudy | SCT016 BKN025 BKN044 | 17.4 | 12.7 | 74% | 76.3 | 1016.8 | |||||||
| 07 | 10:55 | NE 24 | 16.09 | Overcast | BKN015 OVC023 | 17.1 | 12.6 | 75% | 76.28 | 1016.5 | |||||||
| 07 | 09:55 | N 30 | 16.09 | Overcast | SCT010 BKN015 OVC025 | 17 | 12.7 | 76% | 76.25 | 1016.2 | |||||||
| 07 | 08:55 | N 30 G 41 | 16.09 | Overcast | SCT010 OVC014 | 16 | 12.9 | 82% | 76.25 | 1016.2 | |||||||
| Date | Time (cdt) | Wind (kph) | Vis. (km) | Weather | Sky Cond. | Air | Dwpt | Max. | Min. | Relative Humidity | Wind Chill (°C) | Heat Index (°C) | altimeter (cm) | sea level (mb) | 1 hr | 3 hr | 6 hr |
| 6 hour | |||||||||||||||||
| Temperature (ºC) | Pressure | Precipitation (cm) | |||||||||||||||